createdAt,value
2023-01-21T00:00:01.200Z,14.68
2023-01-21T00:01:04.020Z,15.02
2023-01-21T00:02:06.260Z,15.02
2023-01-21T00:03:09.265Z,14.82
2023-01-21T00:04:11.192Z,16.13
2023-01-21T00:05:14.250Z,15.57
2023-01-21T00:06:16.897Z,14.00
2023-01-21T00:07:19.657Z,16.65
2023-01-21T00:08:21.104Z,14.90
2023-01-21T00:10:27.138Z,14.63
2023-01-21T00:11:29.842Z,14.13
2023-01-21T00:12:32.170Z,14.68
2023-01-21T00:13:35.839Z,14.43
2023-01-21T00:14:38.214Z,14.45
2023-01-21T00:15:44.240Z,14.48
2023-01-21T00:16:46.146Z,14.45
2023-01-21T00:17:51.730Z,14.73
2023-01-21T00:18:55.865Z,14.32
2023-01-21T00:19:58.886Z,13.18
2023-01-21T00:21:04.422Z,14.02
2023-01-21T00:22:09.141Z,14.52
2023-01-21T00:23:11.146Z,12.68
2023-01-21T00:24:12.800Z,14.55
2023-01-21T00:25:17.449Z,13.98
2023-01-21T00:26:18.903Z,13.55
2023-01-21T00:27:21.157Z,13.93
2023-01-21T00:28:23.916Z,13.82
2023-01-21T00:29:26.613Z,12.32
2023-01-21T00:30:31.177Z,13.60
2023-01-21T00:31:35.537Z,13.52
2023-01-21T00:32:38.162Z,13.52
2023-01-21T00:33:40.217Z,12.73
2023-01-21T00:34:42.982Z,14.93
2023-01-21T00:35:44.502Z,12.65
2023-01-21T00:36:47.011Z,13.75
2023-01-21T00:37:50.860Z,14.63
2023-01-21T00:38:53.651Z,14.00
2023-01-21T00:39:55.173Z,14.20
2023-01-21T00:41:05.950Z,14.55
2023-01-21T00:42:11.540Z,14.88
2023-01-21T00:43:14.103Z,14.95
2023-01-21T00:44:16.457Z,13.68
2023-01-21T00:45:19.317Z,14.50
2023-01-21T00:46:22.232Z,14.90
2023-01-21T00:47:26.968Z,14.43
2023-01-21T00:48:32.078Z,13.93
2023-01-21T00:49:34.168Z,12.40
2023-01-21T00:50:37.256Z,13.80
2023-01-21T00:51:39.243Z,13.85
2023-01-21T00:52:41.815Z,12.80
2023-01-21T00:53:44.193Z,13.73
2023-01-21T00:54:49.555Z,13.43
2023-01-21T00:55:51.223Z,14.80
2023-01-21T00:56:56.303Z,14.35
2023-01-21T00:57:57.740Z,13.25
2023-01-21T00:59:05.301Z,14.07
2023-01-21T01:00:11.817Z,12.80
2023-01-21T01:01:18.112Z,13.35
2023-01-21T01:02:21.027Z,13.48
2023-01-21T01:03:23.202Z,12.93
2023-01-21T01:04:25.334Z,13.05
2023-01-21T01:05:27.237Z,14.68
2023-01-21T01:06:30.376Z,14.65
2023-01-21T01:07:32.229Z,16.02
2023-01-21T01:08:35.137Z,14.77
2023-01-21T01:09:37.177Z,14.07
2023-01-21T01:10:40.074Z,14.07
2023-01-21T01:11:42.179Z,13.95
2023-01-21T01:12:44.752Z,13.13
2023-01-21T01:13:47.207Z,14.10
2023-01-21T01:14:50.651Z,13.88
2023-01-21T01:15:59.067Z,13.38
2023-01-21T01:17:01.247Z,12.30
2023-01-21T01:18:03.528Z,14.18
2023-01-21T01:19:06.408Z,13.07
2023-01-21T01:20:09.125Z,13.73
2023-01-21T01:21:16.715Z,13.68
2023-01-21T01:22:18.155Z,13.43
2023-01-21T01:23:21.292Z,14.02
2023-01-21T01:24:23.190Z,13.13
2023-01-21T01:25:25.189Z,13.98
2023-01-21T01:26:27.316Z,13.73
2023-01-21T01:27:33.446Z,13.75
2023-01-21T01:28:35.359Z,14.00
2023-01-21T01:29:38.145Z,13.70
2023-01-21T01:30:39.608Z,13.98
2023-01-21T01:31:41.261Z,13.88
2023-01-21T01:32:43.233Z,12.95
2023-01-21T01:33:46.265Z,14.18
2023-01-21T01:34:48.178Z,14.35
2023-01-21T01:35:50.222Z,13.52
2023-01-21T01:36:52.174Z,13.20
2023-01-21T01:37:54.263Z,13.48
2023-01-21T01:38:56.656Z,12.88
2023-01-21T01:40:00.348Z,13.77
2023-01-21T01:41:02.238Z,12.68
2023-01-21T01:42:05.080Z,11.85
2023-01-21T01:43:13.069Z,12.80
2023-01-21T01:44:33.170Z,13.27
2023-01-21T01:45:35.338Z,13.18
2023-01-21T01:46:38.394Z,13.98
2023-01-21T01:47:58.299Z,13.43
2023-01-21T01:49:08.829Z,13.15
2023-01-21T01:50:16.597Z,15.40
2023-01-21T01:51:21.663Z,13.55
2023-01-21T01:52:24.173Z,13.80
2023-01-21T01:53:27.110Z,14.73
2023-01-21T01:54:38.622Z,15.25
2023-01-21T01:55:43.292Z,15.48
2023-01-21T01:56:48.425Z,14.20
2023-01-21T01:57:51.722Z,12.85
2023-01-21T01:58:53.357Z,14.88
2023-01-21T01:59:55.257Z,14.30
2023-01-21T02:00:57.641Z,14.05
2023-01-21T02:02:03.659Z,14.23
2023-01-21T02:03:36.042Z,14.52
2023-01-21T02:06:43.349Z,14.90
2023-01-21T02:07:46.001Z,14.98
2023-01-21T02:08:48.354Z,14.48
2023-01-21T02:09:51.698Z,14.02
2023-01-21T02:10:56.234Z,14.00
2023-01-21T02:12:00.004Z,13.43
2023-01-21T02:13:02.403Z,15.27
2023-01-21T02:14:07.334Z,13.93
2023-01-21T02:15:12.002Z,13.55
2023-01-21T02:16:33.163Z,13.95
2023-01-21T02:17:40.649Z,13.35
2023-01-21T02:19:00.913Z,12.68
2023-01-21T02:20:23.309Z,13.07
2023-01-21T02:21:44.111Z,13.35
2023-01-21T02:23:05.152Z,13.55
2023-01-21T02:24:25.574Z,14.63
2023-01-21T02:25:45.952Z,13.98
2023-01-21T02:27:08.536Z,15.32
2023-01-21T02:28:31.149Z,12.73
2023-01-21T02:30:06.912Z,13.32
2023-01-21T02:31:27.712Z,12.25
2023-01-21T02:32:48.118Z,12.73
2023-01-21T02:34:01.714Z,12.88
2023-01-21T02:35:16.627Z,13.45
2023-01-21T02:36:18.400Z,13.32
2023-01-21T02:37:41.448Z,16.08
2023-01-21T02:39:01.947Z,14.52
2023-01-21T02:40:18.883Z,14.45
2023-01-21T02:41:31.133Z,15.55
2023-01-21T02:42:47.659Z,13.77
2023-01-21T02:44:04.373Z,15.68
2023-01-21T02:45:26.208Z,13.20
2023-01-21T02:46:57.016Z,13.57
2023-01-21T02:48:01.139Z,16.05
2023-01-21T02:49:27.303Z,17.70
2023-01-21T02:50:30.364Z,15.25
2023-01-21T02:51:31.871Z,17.00
2023-01-21T02:53:39.341Z,15.75
2023-01-21T02:54:41.558Z,16.63
2023-01-21T02:55:43.617Z,17.23
2023-01-21T02:56:46.459Z,16.05
2023-01-21T02:57:50.910Z,14.57
2023-01-21T02:58:55.145Z,16.85
2023-01-21T02:59:58.380Z,16.13
2023-01-21T03:01:12.161Z,16.38
2023-01-21T03:02:14.277Z,16.77
2023-01-21T03:03:41.502Z,16.73
2023-01-21T03:04:43.193Z,16.23
2023-01-21T03:06:06.455Z,17.17
2023-01-21T03:07:13.539Z,16.15
2023-01-21T03:08:19.916Z,16.38
2023-01-21T03:09:28.938Z,16.98
2023-01-21T03:10:33.430Z,15.05
2023-01-21T03:11:35.293Z,15.40
2023-01-21T03:12:55.609Z,14.80
2023-01-21T03:14:21.329Z,13.63
2023-01-21T03:16:01.145Z,12.05
2023-01-21T03:17:41.826Z,13.13
2023-01-21T03:18:46.025Z,13.07
2023-01-21T03:19:55.802Z,12.30
2023-01-21T03:21:03.045Z,12.73
2023-01-21T03:22:08.456Z,13.48
2023-01-21T03:23:13.479Z,14.23
2023-01-21T03:24:15.918Z,13.88
2023-01-21T03:25:17.444Z,12.60
2023-01-21T03:26:20.645Z,14.05
2023-01-21T03:27:23.848Z,13.23
2023-01-21T03:28:29.048Z,12.32
2023-01-21T03:29:32.177Z,14.55
2023-01-21T03:30:37.564Z,12.57
2023-01-21T03:31:41.642Z,14.63
2023-01-21T03:32:45.350Z,13.52
2023-01-21T03:33:50.628Z,13.75
2023-01-21T03:34:54.853Z,13.05
2023-01-21T03:35:59.024Z,12.43
2023-01-21T03:37:05.882Z,13.13
2023-01-21T03:38:26.046Z,13.10
2023-01-21T03:39:48.050Z,12.73
2023-01-21T03:40:54.097Z,12.52
2023-01-21T03:41:55.814Z,12.80
2023-01-21T03:42:58.604Z,13.18
2023-01-21T03:44:00.915Z,13.90
2023-01-21T03:45:03.750Z,13.35
2023-01-21T03:46:23.717Z,12.48
2023-01-21T03:47:43.974Z,12.18
2023-01-21T03:48:51.121Z,14.38
2023-01-21T03:50:13.639Z,13.07
2023-01-21T03:51:17.696Z,12.52
2023-01-21T03:52:21.883Z,12.63
2023-01-21T03:53:24.300Z,13.25
2023-01-21T03:54:27.081Z,11.32
2023-01-21T03:55:30.716Z,12.93
2023-01-21T03:56:34.625Z,11.48
2023-01-21T03:57:36.418Z,12.07
2023-01-21T03:58:38.248Z,11.80
2023-01-21T03:59:42.519Z,14.48
2023-01-21T04:00:45.159Z,13.25
2023-01-21T04:01:48.183Z,13.63
2023-01-21T04:02:50.306Z,13.43
2023-01-21T04:03:53.187Z,12.75
2023-01-21T04:04:55.269Z,14.45
2023-01-21T04:05:58.215Z,12.73
2023-01-21T04:07:00.666Z,14.85
2023-01-21T04:08:02.415Z,14.52
2023-01-21T04:09:07.122Z,14.13
2023-01-21T04:10:12.383Z,14.95
2023-01-21T04:11:14.566Z,12.32
2023-01-21T04:12:17.713Z,13.98
2023-01-21T04:13:19.256Z,13.25
2023-01-21T04:14:21.909Z,14.68
2023-01-21T04:15:24.245Z,15.40
2023-01-21T04:16:27.016Z,14.88
2023-01-21T04:17:29.253Z,14.43
2023-01-21T04:18:31.370Z,13.60
2023-01-21T04:19:33.256Z,14.80
2023-01-21T04:20:37.556Z,13.55
2023-01-21T04:21:39.287Z,13.90
2023-01-21T04:22:42.413Z,13.98
2023-01-21T04:23:44.947Z,13.73
2023-01-21T04:24:47.469Z,14.93
2023-01-21T04:25:50.123Z,14.82
2023-01-21T04:26:53.387Z,13.65
2023-01-21T04:27:55.296Z,13.45
2023-01-21T04:28:56.751Z,13.40
2023-01-21T04:29:58.314Z,14.23
2023-01-21T04:31:00.435Z,14.02
2023-01-21T04:32:04.775Z,13.32
2023-01-21T04:40:24.851Z,12.30
2023-01-21T04:42:29.394Z,11.68
2023-01-21T04:43:32.139Z,14.13
2023-01-21T04:44:34.993Z,13.85
2023-01-21T04:45:37.764Z,14.48
2023-01-21T04:46:39.281Z,15.35
2023-01-21T04:47:45.518Z,16.42
2023-01-21T04:48:47.281Z,17.27
2023-01-21T04:49:51.164Z,16.00
2023-01-21T04:50:53.321Z,16.40
2023-01-21T04:51:55.325Z,16.30
2023-01-21T04:52:57.269Z,29.35
2023-01-21T04:54:03.120Z,16.38
2023-01-21T04:55:05.814Z,16.30
2023-01-21T06:24:42.662Z,14.75
2023-01-21T06:25:45.437Z,17.73
2023-01-21T06:26:47.299Z,18.30
2023-01-21T06:27:52.627Z,18.70
2023-01-21T06:28:58.818Z,18.67
2023-01-21T06:30:01.581Z,18.17
2023-01-21T06:31:03.555Z,18.55
2023-01-21T06:32:06.293Z,20.50
2023-01-21T06:33:08.343Z,18.65
2023-01-21T06:34:12.772Z,16.90
2023-01-21T06:35:18.428Z,17.38
2023-01-21T06:36:23.653Z,17.30
2023-01-21T06:37:25.561Z,17.38
2023-01-21T06:38:28.281Z,16.38
2023-01-21T06:39:30.377Z,16.00
2023-01-21T06:40:35.380Z,15.23
2023-01-21T06:41:36.826Z,15.32
2023-01-21T06:42:39.944Z,15.45
2023-01-21T06:43:42.558Z,16.40
2023-01-21T06:44:45.456Z,15.15
2023-01-21T06:45:47.016Z,15.18
2023-01-21T06:47:00.771Z,15.15
2023-01-21T06:48:04.440Z,15.65
2023-01-21T06:49:08.564Z,15.98
2023-01-21T06:50:12.243Z,16.02
2023-01-21T06:51:14.311Z,17.45
2023-01-21T06:52:18.479Z,16.42
2023-01-21T06:53:22.910Z,16.10
2023-01-21T06:54:26.006Z,15.50
2023-01-21T06:55:28.411Z,16.70
2023-01-21T06:56:29.878Z,16.05
2023-01-21T06:57:32.296Z,16.63
2023-01-21T06:58:34.845Z,17.15
2023-01-21T06:59:36.370Z,16.92
2023-01-21T07:00:39.301Z,16.83
2023-01-21T07:01:41.321Z,15.45
2023-01-21T07:02:42.872Z,15.05
2023-01-21T07:03:45.943Z,15.80
2023-01-21T07:04:51.383Z,15.45
2023-01-21T07:05:52.908Z,15.60
2023-01-21T07:06:55.587Z,16.60
2023-01-21T07:07:58.014Z,17.05
2023-01-21T07:08:59.510Z,15.68
2023-01-21T07:10:01.565Z,16.55
2023-01-21T07:11:04.338Z,16.50
2023-01-21T07:12:06.596Z,16.73
2023-01-21T07:13:10.382Z,16.80
2023-01-21T07:14:11.890Z,16.50
2023-01-21T07:15:15.075Z,16.30
2023-01-21T07:16:17.425Z,17.10
2023-01-21T07:17:21.946Z,18.00
2023-01-21T07:18:24.332Z,14.82
2023-01-21T07:19:29.971Z,15.70
2023-01-21T07:20:32.459Z,16.48
2023-01-21T07:21:35.455Z,14.77
2023-01-21T07:22:37.310Z,16.13
2023-01-21T07:23:42.007Z,15.02
2023-01-21T07:24:44.327Z,15.57
2023-01-21T07:25:47.211Z,16.15
2023-01-21T07:26:51.641Z,16.35
2023-01-21T07:27:54.210Z,15.90
2023-01-21T07:28:55.675Z,15.85
2023-01-21T07:29:58.522Z,16.20
2023-01-21T07:31:01.360Z,17.38
2023-01-21T07:32:04.476Z,16.95
2023-01-21T07:33:06.995Z,17.00
2023-01-21T07:34:10.191Z,17.13
2023-01-21T07:35:12.611Z,16.83
2023-01-21T07:36:15.737Z,16.27
2023-01-21T07:37:17.389Z,16.70
2023-01-21T07:38:22.207Z,13.98
2023-01-21T07:39:26.859Z,15.23
2023-01-21T07:40:29.521Z,14.05
2023-01-21T07:41:31.354Z,13.25
2023-01-21T07:42:34.129Z,11.43
2023-01-21T07:43:36.309Z,11.73
2023-01-21T07:44:39.142Z,12.38
2023-01-21T07:45:41.475Z,12.98
2023-01-21T07:46:44.460Z,13.32
2023-01-21T07:47:46.609Z,13.15
2023-01-21T07:48:51.913Z,13.23
2023-01-21T07:49:55.735Z,14.23
2023-01-21T07:51:03.193Z,14.57
2023-01-21T07:52:05.439Z,14.88
2023-01-21T07:53:12.660Z,13.90
2023-01-21T07:54:14.766Z,14.88
2023-01-21T07:55:19.891Z,13.98
2023-01-21T07:56:22.570Z,14.52
2023-01-21T07:57:28.185Z,14.15
2023-01-21T07:58:30.353Z,14.40
2023-01-21T07:59:32.345Z,14.27
2023-01-21T08:00:34.346Z,14.93
2023-01-21T08:01:35.844Z,13.23
2023-01-21T08:02:37.379Z,14.48
2023-01-21T08:03:42.316Z,11.60
2023-01-21T08:04:44.357Z,12.75
2023-01-21T08:05:46.895Z,13.38
2023-01-21T08:06:51.564Z,12.07
2023-01-21T08:07:56.666Z,12.48
2023-01-21T08:08:58.126Z,19.77
2023-01-21T08:10:02.623Z,11.98
2023-01-21T08:11:09.889Z,12.27
2023-01-21T08:12:13.278Z,13.38
2023-01-21T08:13:15.370Z,11.98
2023-01-21T08:14:17.937Z,11.10
2023-01-21T08:15:22.633Z,11.48
2023-01-21T08:16:25.391Z,10.73
2023-01-21T08:17:27.339Z,11.50
2023-01-21T08:18:30.232Z,11.10
2023-01-21T08:19:34.716Z,10.93
2023-01-21T08:20:36.349Z,10.10
2023-01-21T08:21:37.791Z,8.85
2023-01-21T08:22:39.499Z,9.43
2023-01-21T08:23:44.847Z,10.20
2023-01-21T08:24:46.415Z,10.13
2023-01-21T08:25:48.357Z,9.40
2023-01-21T08:26:52.685Z,9.32
2023-01-21T08:27:56.613Z,9.23
2023-01-21T08:28:58.404Z,9.75
2023-01-21T08:30:00.994Z,8.90
2023-01-21T08:31:06.474Z,9.35
2023-01-21T08:32:12.467Z,9.35
2023-01-21T08:33:14.334Z,8.52
2023-01-21T08:34:17.067Z,8.50
2023-01-21T08:35:19.593Z,8.23
2023-01-21T08:36:21.382Z,7.47
2023-01-21T08:37:24.678Z,9.27
2023-01-21T08:38:26.338Z,8.23
2023-01-21T08:39:30.069Z,7.45
2023-01-21T08:40:34.010Z,8.32
2023-01-21T08:41:35.556Z,8.65
2023-01-21T08:42:37.048Z,6.72
2023-01-21T08:43:40.671Z,7.90
2023-01-21T08:44:42.162Z,6.93
2023-01-21T08:45:44.382Z,7.38
2023-01-21T08:46:46.352Z,6.70
2023-01-21T08:47:51.685Z,5.50
2023-01-21T08:48:55.867Z,6.40
2023-01-21T08:49:58.467Z,5.93
2023-01-21T08:51:00.741Z,5.90
2023-01-21T08:52:03.744Z,6.20
2023-01-21T08:53:06.366Z,6.03
2023-01-21T08:54:12.134Z,6.72
2023-01-21T08:55:14.484Z,6.93
2023-01-21T08:56:17.925Z,8.60
2023-01-21T08:57:22.655Z,6.75
2023-01-21T08:58:25.625Z,6.78
2023-01-21T08:59:31.238Z,8.02
2023-01-21T09:00:34.099Z,7.13
2023-01-21T09:01:40.872Z,6.53
2023-01-21T09:02:43.898Z,7.32
2023-01-21T09:03:45.337Z,7.22
2023-01-21T09:04:48.326Z,6.35
2023-01-21T09:05:52.222Z,6.13
2023-01-21T09:06:54.932Z,6.20
2023-01-21T09:07:58.306Z,5.25
2023-01-21T09:09:04.818Z,6.15
2023-01-21T09:10:07.017Z,7.00
2023-01-21T09:11:10.241Z,7.78
2023-01-21T09:12:12.541Z,7.45
2023-01-21T09:13:16.508Z,6.50
2023-01-21T09:14:22.112Z,5.25
2023-01-21T09:15:26.941Z,6.15
2023-01-21T09:16:31.904Z,6.00
2023-01-21T09:17:34.914Z,6.25
2023-01-21T09:18:37.615Z,5.85
2023-01-21T09:19:42.902Z,6.93
2023-01-21T09:20:44.368Z,6.07
2023-01-21T09:21:46.962Z,6.32
2023-01-21T09:22:52.467Z,7.65
2023-01-21T09:23:55.882Z,6.78
2023-01-21T09:24:57.349Z,6.55
2023-01-21T09:26:10.089Z,6.72
2023-01-21T09:27:12.481Z,6.28
2023-01-21T09:28:16.425Z,6.00
2023-01-21T09:29:18.400Z,6.80
2023-01-21T09:30:21.069Z,6.38
2023-01-21T09:31:24.774Z,7.05
2023-01-21T09:32:27.652Z,8.45
2023-01-21T09:33:33.008Z,6.30
2023-01-21T09:34:38.873Z,6.43
2023-01-21T09:35:40.386Z,6.80
2023-01-21T09:36:45.106Z,6.68
2023-01-21T09:37:48.427Z,6.90
2023-01-21T09:38:51.661Z,6.70
2023-01-21T09:39:53.456Z,6.88
2023-01-21T09:40:58.847Z,7.60
2023-01-21T09:42:02.894Z,8.15
2023-01-21T09:43:11.158Z,7.68
2023-01-21T09:44:13.426Z,7.28
2023-01-21T09:45:17.623Z,7.40
2023-01-21T09:46:30.319Z,7.43
2023-01-21T09:47:42.384Z,7.28
2023-01-21T09:48:49.377Z,7.85
2023-01-21T09:50:05.346Z,8.38
2023-01-21T09:51:15.141Z,7.93
2023-01-21T09:52:35.305Z,7.65
2023-01-21T09:53:53.201Z,8.93
2023-01-21T09:54:57.421Z,8.27
2023-01-21T09:56:03.463Z,8.15
2023-01-21T09:57:23.785Z,9.55
2023-01-21T09:58:44.695Z,9.20
2023-01-21T10:00:06.300Z,9.40
2023-01-21T10:01:21.771Z,9.23
2023-01-21T10:02:42.025Z,9.00
2023-01-21T10:03:55.769Z,9.02
2023-01-21T10:05:12.023Z,9.98
2023-01-21T10:06:44.057Z,9.15
2023-01-21T10:07:53.568Z,9.13
2023-01-21T10:09:04.011Z,8.90
2023-01-21T10:10:15.286Z,9.10
2023-01-21T10:11:23.442Z,9.00
2023-01-21T10:12:43.666Z,9.13
2023-01-21T10:14:03.857Z,8.60
2023-01-21T10:15:24.097Z,9.25
2023-01-21T10:16:45.890Z,10.73
2023-01-21T10:18:06.260Z,9.82
2023-01-21T10:19:11.550Z,9.45
2023-01-21T10:20:28.160Z,9.20
2023-01-21T10:21:40.983Z,9.38
2023-01-21T10:22:48.209Z,8.77
2023-01-21T10:23:52.936Z,9.15
2023-01-21T10:25:13.071Z,9.57
2023-01-21T10:26:16.260Z,8.73
2023-01-21T10:27:22.501Z,8.95
2023-01-21T10:28:25.615Z,9.90
2023-01-21T10:29:28.710Z,9.35
2023-01-21T10:30:34.377Z,9.13
2023-01-21T10:31:42.726Z,8.77
2023-01-21T10:32:44.553Z,9.82
2023-01-21T10:33:47.185Z,9.45
2023-01-21T10:34:51.515Z,8.63
2023-01-21T10:36:12.590Z,9.35
2023-01-21T10:37:29.776Z,10.18
2023-01-21T10:38:51.064Z,10.38
2023-01-21T10:40:02.871Z,8.40
2023-01-21T10:41:22.937Z,9.38
2023-01-21T10:42:24.615Z,9.15
2023-01-21T10:43:44.452Z,9.50
2023-01-21T10:45:25.163Z,9.90
2023-01-21T10:46:42.374Z,9.68
2023-01-21T10:48:02.762Z,9.18
2023-01-21T10:49:24.585Z,9.20
2023-01-21T10:50:44.894Z,10.02
2023-01-21T10:51:58.479Z,8.85
2023-01-21T10:53:20.904Z,9.32
2023-01-21T10:54:29.272Z,9.25
2023-01-21T10:55:33.901Z,9.23
2023-01-21T10:56:36.509Z,10.05
2023-01-21T10:57:53.482Z,9.98
2023-01-21T10:59:22.969Z,9.70
2023-01-21T11:00:35.964Z,9.55
2023-01-21T11:01:44.905Z,9.95
2023-01-21T11:02:52.683Z,9.20
2023-01-21T11:03:55.300Z,10.18
2023-01-21T11:04:58.829Z,9.52
2023-01-21T11:06:02.071Z,9.60
2023-01-21T11:07:06.221Z,9.98
2023-01-21T11:08:15.054Z,9.55
2023-01-21T11:09:17.641Z,9.27
2023-01-21T11:10:22.195Z,10.75
2023-01-21T11:11:29.586Z,10.52
2023-01-21T11:12:32.895Z,9.95
2023-01-21T11:13:36.175Z,10.20
2023-01-21T11:14:40.939Z,10.40
2023-01-21T11:15:46.155Z,9.93
2023-01-21T11:16:51.921Z,9.88
2023-01-21T11:17:56.651Z,10.63
2023-01-21T11:18:58.546Z,9.98
2023-01-21T11:20:04.711Z,9.63
2023-01-21T11:21:25.221Z,9.48
2023-01-21T11:22:32.771Z,9.40
2023-01-21T11:23:37.599Z,9.52
2023-01-21T11:24:45.214Z,11.50
2023-01-21T11:25:49.417Z,10.05
2023-01-21T11:26:57.773Z,10.10
2023-01-21T11:27:59.445Z,9.98
2023-01-21T11:29:14.999Z,10.48
2023-01-21T11:30:48.321Z,11.25
2023-01-21T11:32:11.841Z,10.10
2023-01-21T11:33:18.238Z,10.85
2023-01-21T11:34:21.853Z,10.48
2023-01-21T11:35:23.554Z,10.90
2023-01-21T11:36:26.155Z,9.05
2023-01-21T11:37:28.919Z,10.10
2023-01-21T11:38:35.414Z,10.73
2023-01-21T11:39:40.188Z,9.75
2023-01-21T11:40:41.691Z,9.52
2023-01-21T11:41:51.034Z,11.35
2023-01-21T11:42:57.663Z,10.40
2023-01-21T11:44:18.432Z,9.88
2023-01-21T11:45:39.521Z,9.70
2023-01-21T11:46:41.448Z,9.80
2023-01-21T11:47:51.167Z,10.00
2023-01-21T11:48:57.953Z,9.70
2023-01-21T11:50:12.291Z,10.57
2023-01-21T11:51:16.281Z,10.20
2023-01-21T11:52:22.740Z,9.90
2023-01-21T11:53:25.199Z,9.85
2023-01-21T11:54:27.466Z,10.32
2023-01-21T11:55:32.968Z,9.55
2023-01-21T11:56:36.604Z,9.77
2023-01-21T11:57:42.349Z,10.63
2023-01-21T11:58:44.481Z,10.15
2023-01-21T11:59:47.991Z,9.30
2023-01-21T12:00:53.124Z,8.93
2023-01-21T12:02:03.763Z,10.15
2023-01-21T12:03:05.753Z,9.27
2023-01-21T12:04:23.528Z,9.95
2023-01-21T12:05:28.481Z,9.40
2023-01-21T12:06:36.697Z,8.90
2023-01-21T12:07:40.904Z,9.35
2023-01-21T12:08:42.727Z,9.85
2023-01-21T12:09:48.245Z,9.45
2023-01-21T12:10:51.980Z,9.50
2023-01-21T12:12:06.955Z,9.40
2023-01-21T12:13:12.355Z,9.32
2023-01-21T12:14:32.699Z,9.02
2023-01-21T12:15:56.205Z,9.85
2023-01-21T12:17:13.361Z,9.82
2023-01-21T12:18:40.865Z,9.32
2023-01-21T12:19:44.999Z,9.88
2023-01-21T12:20:58.796Z,9.90
2023-01-21T12:22:06.225Z,9.40
2023-01-21T12:23:26.610Z,8.88
2023-01-21T12:24:49.165Z,8.80
2023-01-21T12:26:07.177Z,9.40
2023-01-21T12:27:28.685Z,9.88
2023-01-21T12:28:46.152Z,9.52
2023-01-21T12:29:52.717Z,9.20
2023-01-21T12:31:12.731Z,8.60
2023-01-21T12:32:18.073Z,9.02
2023-01-21T12:33:40.580Z,9.45
2023-01-21T12:34:56.060Z,8.70
2023-01-21T12:36:10.181Z,9.25
2023-01-21T12:37:31.367Z,8.82
2023-01-21T12:38:51.438Z,9.38
2023-01-21T12:39:54.800Z,9.65
2023-01-21T12:41:05.561Z,10.75
2023-01-21T12:42:07.699Z,8.95
2023-01-21T12:43:15.869Z,10.98
2023-01-21T12:44:17.427Z,10.90
2023-01-21T12:45:23.960Z,9.88
2023-01-21T12:46:45.180Z,9.77
2023-01-21T12:48:05.839Z,9.30
2023-01-21T12:49:22.870Z,9.43
2023-01-21T12:50:32.221Z,9.15
2023-01-21T12:51:37.391Z,9.15
2023-01-21T12:52:57.707Z,9.20
2023-01-21T12:54:20.700Z,9.88
2023-01-21T12:55:44.373Z,9.52
2023-01-21T12:57:01.401Z,9.43
2023-01-21T12:58:06.134Z,10.27
2023-01-21T12:59:10.951Z,9.13
2023-01-21T13:00:24.219Z,9.68
2023-01-21T13:01:45.315Z,9.30
2023-01-21T13:03:03.959Z,9.40
2023-01-21T13:04:16.493Z,9.45
2023-01-21T13:05:38.630Z,9.57
2023-01-21T13:06:53.570Z,9.90
2023-01-21T13:08:13.807Z,10.18
2023-01-21T13:09:33.684Z,9.88
2023-01-21T13:10:45.434Z,10.13
2023-01-21T13:11:51.359Z,10.07
2023-01-21T13:13:13.350Z,9.95
2023-01-21T13:14:19.910Z,9.15
2023-01-21T13:15:27.337Z,10.32
2023-01-21T13:16:31.326Z,9.98
2023-01-21T13:17:35.114Z,9.70
2023-01-21T13:18:46.332Z,10.25
2023-01-21T13:19:51.635Z,10.23
2023-01-21T13:20:55.252Z,9.65
2023-01-21T13:22:15.667Z,9.63
2023-01-21T13:23:36.219Z,10.18
2023-01-21T13:24:46.796Z,9.48
2023-01-21T13:26:10.848Z,10.03
2023-01-21T13:27:17.113Z,12.07
2023-01-21T13:28:24.470Z,10.30
2023-01-21T13:29:33.226Z,9.25
2023-01-21T13:30:58.439Z,9.63
2023-01-21T13:32:12.729Z,9.82
2023-01-21T13:33:25.735Z,9.77
2023-01-21T13:34:39.327Z,9.93
2023-01-21T13:36:01.881Z,11.00
2023-01-21T13:37:14.608Z,9.38
2023-01-21T13:38:53.457Z,9.57
2023-01-21T13:40:14.608Z,7.50
2023-01-21T13:41:36.675Z,7.57
2023-01-21T13:42:59.141Z,8.27
2023-01-21T13:44:10.489Z,9.07
2023-01-21T13:45:31.346Z,9.43
2023-01-21T13:46:55.198Z,10.20
2023-01-21T13:48:16.399Z,11.23
2023-01-21T13:49:36.725Z,10.70
2023-01-21T13:50:44.100Z,10.57
2023-01-21T13:52:05.455Z,9.90
2023-01-21T13:53:19.430Z,10.40
2023-01-21T13:54:34.139Z,9.38
2023-01-21T13:55:39.627Z,9.90
2023-01-21T13:57:05.013Z,9.65
2023-01-21T13:58:15.850Z,9.98
2023-01-21T13:59:23.406Z,10.77
2023-01-21T14:00:38.767Z,9.48
2023-01-21T14:01:58.936Z,9.32
2023-01-21T14:03:19.150Z,10.32
2023-01-21T14:04:32.608Z,8.60
2023-01-21T14:05:44.031Z,9.30
2023-01-21T14:07:06.702Z,9.07
2023-01-21T14:08:12.139Z,10.07
2023-01-21T14:09:24.341Z,9.43
2023-01-21T14:10:45.258Z,9.02
2023-01-21T14:12:04.711Z,9.13
2023-01-21T14:13:35.677Z,8.70
2023-01-21T14:14:54.354Z,8.45
2023-01-21T14:16:16.661Z,9.07
2023-01-21T14:17:32.822Z,7.22
2023-01-21T14:19:10.719Z,7.97
2023-01-21T14:20:32.925Z,7.63
2023-01-21T14:21:34.530Z,8.18
2023-01-21T14:22:56.346Z,7.53
2023-01-21T14:24:23.617Z,8.85
2023-01-21T14:25:35.739Z,9.88
2023-01-21T14:26:56.276Z,9.52
2023-01-21T14:28:11.996Z,9.43
2023-01-21T14:29:34.663Z,9.32
2023-01-21T14:30:41.929Z,9.23
2023-01-21T14:32:04.458Z,9.63
2023-01-21T14:33:13.820Z,9.95
2023-01-21T14:34:27.586Z,9.55
2023-01-21T14:35:57.802Z,9.27
2023-01-21T14:37:26.258Z,9.48
2023-01-21T14:38:34.435Z,9.20
2023-01-21T14:39:54.434Z,9.18
2023-01-21T14:41:06.354Z,8.90
2023-01-21T14:42:11.040Z,8.90
2023-01-21T14:43:43.029Z,9.68
2023-01-21T14:44:56.730Z,9.15
2023-01-21T14:45:59.883Z,9.45
2023-01-21T14:47:23.036Z,9.45
2023-01-21T14:48:43.312Z,9.20
2023-01-21T14:49:46.994Z,9.50
2023-01-21T14:50:54.825Z,8.60
2023-01-21T14:51:58.345Z,8.02
2023-01-21T14:53:01.987Z,8.85
2023-01-21T14:54:18.078Z,8.90
2023-01-21T14:55:30.545Z,9.65
2023-01-21T14:56:37.123Z,10.07
2023-01-21T14:57:41.340Z,9.80
2023-01-21T14:58:47.780Z,10.30
2023-01-21T14:59:53.265Z,11.15
2023-01-21T15:00:55.563Z,11.05
2023-01-21T15:01:59.161Z,12.73
2023-01-21T15:03:19.206Z,10.02
2023-01-21T15:04:25.704Z,9.52
2023-01-21T15:05:28.974Z,10.02
2023-01-21T15:06:31.813Z,9.35
2023-01-21T15:07:42.318Z,10.05
2023-01-21T15:08:47.414Z,9.07
2023-01-21T15:09:55.684Z,9.45
2023-01-21T15:11:05.425Z,9.05
2023-01-21T15:12:19.974Z,9.75
2023-01-21T15:13:40.047Z,9.82
2023-01-21T15:14:43.238Z,10.30
2023-01-21T15:16:03.747Z,11.07
2023-01-21T15:17:05.608Z,10.75
2023-01-21T15:18:26.290Z,10.48
2023-01-21T15:19:28.489Z,10.00
2023-01-21T15:21:01.645Z,9.73
2023-01-21T15:22:03.952Z,9.95
2023-01-21T15:23:28.280Z,10.75
2023-01-21T15:24:34.354Z,9.32
2023-01-21T15:25:39.293Z,9.77
2023-01-21T15:26:42.399Z,9.55
2023-01-21T15:28:03.512Z,9.45
2023-01-21T15:29:45.324Z,9.88
2023-01-21T15:30:58.815Z,10.25
2023-01-21T15:32:22.187Z,9.75
2023-01-21T15:33:27.565Z,25.58
2023-01-21T15:34:29.833Z,12.07
2023-01-21T15:35:40.579Z,11.00
2023-01-21T15:36:45.301Z,9.98
2023-01-21T15:37:50.663Z,9.60
2023-01-21T15:38:53.622Z,9.57
2023-01-21T15:40:01.860Z,8.93
2023-01-21T15:41:11.014Z,9.02
2023-01-21T15:42:33.045Z,9.57
2023-01-21T15:43:55.241Z,9.50
2023-01-21T15:45:21.539Z,9.73
2023-01-21T15:46:32.912Z,8.77
2023-01-21T15:47:50.841Z,9.70
2023-01-21T15:49:12.122Z,9.93
2023-01-21T15:50:32.192Z,9.95
2023-01-21T15:51:39.919Z,10.48
2023-01-21T15:52:55.345Z,10.95
2023-01-21T15:53:57.754Z,9.10
2023-01-21T15:55:02.401Z,8.95
2023-01-21T15:56:23.490Z,9.35
2023-01-21T15:57:44.126Z,9.13
2023-01-21T15:58:52.639Z,9.55
2023-01-21T16:00:13.056Z,9.10
2023-01-21T16:01:34.424Z,9.40
2023-01-21T16:02:50.704Z,8.15
2023-01-21T16:04:03.909Z,8.85
2023-01-21T16:05:24.489Z,9.65
2023-01-21T16:06:36.617Z,9.40
2023-01-21T16:07:56.578Z,10.10
2023-01-21T16:09:05.959Z,9.15
2023-01-21T16:10:12.281Z,9.27
2023-01-21T16:11:33.252Z,9.20
2023-01-21T16:12:53.608Z,9.43
2023-01-21T16:14:14.251Z,8.80
2023-01-21T16:15:34.738Z,8.70
2023-01-21T16:16:47.463Z,8.40
2023-01-21T16:18:24.083Z,8.68
2023-01-21T16:19:29.073Z,9.13
2023-01-21T16:20:32.628Z,9.48
2023-01-21T16:21:35.751Z,9.02
2023-01-21T16:22:40.055Z,9.50
2023-01-21T16:23:46.157Z,9.10
2023-01-21T16:24:52.066Z,9.43
2023-01-21T16:25:53.573Z,9.20
2023-01-21T16:26:58.174Z,9.15
2023-01-21T16:28:00.630Z,8.95
2023-01-21T16:29:04.447Z,8.82
2023-01-21T16:30:13.276Z,9.07
2023-01-21T16:31:16.084Z,8.90
2023-01-21T16:32:19.294Z,8.68